createdAt,value
2022-11-20T00:01:06.770Z,-4.76
2022-11-20T00:03:34.602Z,-4.75
2022-11-20T00:06:03.084Z,-4.75
2022-11-20T00:08:31.021Z,-4.74
2022-11-20T00:10:59.046Z,-4.74
2022-11-20T00:13:28.135Z,-4.71
2022-11-20T00:15:59.434Z,-4.69
2022-11-20T00:18:27.402Z,-4.69
2022-11-20T00:20:55.341Z,-4.66
2022-11-20T00:23:23.115Z,-4.64
2022-11-20T00:25:50.908Z,-4.61
2022-11-20T00:28:18.643Z,-4.59
2022-11-20T00:30:47.765Z,-4.57
2022-11-20T00:33:15.577Z,-4.53
2022-11-20T00:35:43.311Z,-4.49
2022-11-20T00:38:11.152Z,-4.44
2022-11-20T00:40:38.888Z,-4.38
2022-11-20T00:43:06.660Z,-4.31
2022-11-20T00:45:34.392Z,-4.26
2022-11-20T00:48:03.461Z,-4.18
2022-11-20T00:50:31.224Z,-4.16
2022-11-20T00:52:58.972Z,-4.10
2022-11-20T00:55:26.914Z,-4.04
2022-11-20T00:57:54.649Z,-4.01
2022-11-20T01:00:22.405Z,-3.97
2022-11-20T01:02:50.136Z,-3.93
2022-11-20T01:05:19.332Z,-3.90
2022-11-20T01:07:47.081Z,-3.86
2022-11-20T01:10:14.893Z,-3.82
2022-11-20T01:12:42.797Z,-3.78
2022-11-20T01:15:11.240Z,-3.74
2022-11-20T01:17:38.989Z,-3.70
2022-11-20T01:20:07.839Z,-3.67
2022-11-20T01:22:36.935Z,-3.64
2022-11-20T01:25:05.110Z,-3.61
2022-11-20T01:27:32.838Z,-3.58
2022-11-20T01:30:01.390Z,-3.54
2022-11-20T01:32:29.324Z,-3.52
2022-11-20T01:34:57.069Z,-3.49
2022-11-20T01:37:24.808Z,-3.46
2022-11-20T01:39:53.895Z,-3.45
2022-11-20T01:42:47.457Z,-3.43
2022-11-20T01:45:48.912Z,-3.43
2022-11-20T01:48:16.981Z,-3.43
2022-11-20T01:50:45.351Z,-3.41
2022-11-20T01:53:16.794Z,-3.41
2022-11-20T01:55:49.350Z,-3.41
2022-11-20T01:58:18.545Z,-3.38
2022-11-20T02:00:46.315Z,-3.38
2022-11-20T02:03:17.842Z,-3.38
2022-11-20T02:05:51.411Z,-3.37
2022-11-20T02:08:20.067Z,-3.36
2022-11-20T02:10:49.392Z,-3.35
2022-11-20T02:13:43.816Z,-3.35
2022-11-20T02:16:18.079Z,-3.34
2022-11-20T02:18:46.922Z,-3.36
2022-11-20T02:21:27.331Z,-3.38
2022-11-20T02:24:08.371Z,-3.40
2022-11-20T02:26:42.755Z,-3.44
2022-11-20T02:29:10.721Z,-3.46
2022-11-20T02:31:40.405Z,-3.50
2022-11-20T02:34:08.125Z,-3.54
2022-11-20T02:36:37.624Z,-3.55
2022-11-20T02:39:07.159Z,-3.60
2022-11-20T02:41:37.312Z,-3.60
2022-11-20T02:44:06.204Z,-3.63
2022-11-20T02:46:34.011Z,-3.68
2022-11-20T02:49:03.330Z,-3.75
2022-11-20T02:51:31.495Z,-3.80
2022-11-20T02:53:59.295Z,-3.83
2022-11-20T02:56:28.908Z,-3.84
2022-11-20T02:58:56.744Z,-3.88
2022-11-20T03:01:24.924Z,-3.91
2022-11-20T03:03:55.438Z,-3.94
2022-11-20T03:06:23.578Z,-3.99
2022-11-20T03:08:51.295Z,-4.01
2022-11-20T03:11:19.946Z,-4.03
2022-11-20T03:13:49.166Z,-4.05
2022-11-20T03:16:19.777Z,-4.10
2022-11-20T03:18:47.894Z,-4.14
2022-11-20T03:21:16.704Z,-4.18
2022-11-20T03:23:44.705Z,-4.25
2022-11-20T03:26:15.208Z,-4.31
2022-11-20T03:28:43.473Z,-4.34
2022-11-20T03:31:14.409Z,-4.40
2022-11-20T03:33:43.536Z,-4.46
2022-11-20T03:36:13.543Z,-4.51
2022-11-20T03:38:41.672Z,-4.54
2022-11-20T03:41:10.757Z,-4.59
2022-11-20T03:43:38.944Z,-4.62
2022-11-20T03:46:07.743Z,-4.64
2022-11-20T03:48:36.866Z,-4.66
2022-11-20T03:51:12.398Z,-4.67
2022-11-20T03:53:40.463Z,-4.67
2022-11-20T03:56:09.452Z,-4.68
2022-11-20T03:58:38.742Z,-4.69
2022-11-20T04:01:08.357Z,-4.70
2022-11-20T04:03:38.190Z,-4.71
2022-11-20T04:06:07.670Z,-4.72
2022-11-20T04:08:35.432Z,-4.72
2022-11-20T04:11:13.580Z,-4.74
2022-11-20T04:13:41.799Z,-4.75
2022-11-20T04:16:10.915Z,-4.75
2022-11-20T04:18:40.127Z,-4.75
2022-11-20T04:21:08.633Z,-4.75
2022-11-20T04:23:36.407Z,-4.75
2022-11-20T04:26:05.159Z,-4.76
2022-11-20T04:28:32.908Z,-4.76
2022-11-20T04:31:05.689Z,-4.78
2022-11-20T04:33:34.407Z,-4.78
2022-11-20T04:36:05.537Z,-4.80
2022-11-20T04:38:33.897Z,-4.80
2022-11-20T04:41:02.732Z,-4.80
2022-11-20T04:43:30.803Z,-4.80
2022-11-20T04:45:59.757Z,-4.80
2022-11-20T04:48:31.701Z,-4.81
2022-11-20T04:50:59.677Z,-4.83
2022-11-20T04:53:28.811Z,-4.81
2022-11-20T04:56:01.848Z,-4.80
2022-11-20T04:58:29.680Z,-4.80
2022-11-20T05:01:04.172Z,-4.79
2022-11-20T05:03:32.452Z,-4.78
2022-11-20T05:06:02.416Z,-4.77
2022-11-20T05:08:32.351Z,-4.77
2022-11-20T05:11:04.319Z,-4.76
2022-11-20T05:13:32.362Z,-4.77
2022-11-20T05:16:03.856Z,-4.76
2022-11-20T05:18:31.651Z,-4.75
2022-11-20T05:20:59.864Z,-4.75
2022-11-20T05:23:28.363Z,-4.75
2022-11-20T05:25:59.677Z,-4.75
2022-11-20T05:28:29.001Z,-4.75
2022-11-20T05:30:57.179Z,-4.74
2022-11-20T05:33:24.970Z,-4.76
2022-11-20T05:35:52.712Z,-4.77
2022-11-20T05:38:20.454Z,-4.79
2022-11-20T05:40:48.228Z,-4.80
2022-11-20T05:43:17.931Z,-4.81
2022-11-20T05:45:54.129Z,-4.84
2022-11-20T05:48:22.018Z,-4.84
2022-11-20T05:50:49.989Z,-4.86
2022-11-20T05:53:17.720Z,-4.89
2022-11-20T05:55:45.460Z,-4.91
2022-11-20T05:58:13.199Z,-4.91
2022-11-20T06:00:42.354Z,-4.90
2022-11-20T06:03:10.091Z,-4.90
2022-11-20T06:05:37.831Z,-4.89
2022-11-20T06:08:05.907Z,-4.89
2022-11-20T06:10:33.621Z,-4.90
2022-11-20T06:13:01.372Z,-4.88
2022-11-20T06:15:29.134Z,-4.90
2022-11-20T06:18:00.177Z,-4.90
2022-11-20T06:20:28.062Z,-4.91
2022-11-20T06:22:55.996Z,-4.91
2022-11-20T06:25:23.765Z,-4.90
2022-11-20T06:27:51.464Z,-4.91
2022-11-20T06:30:19.459Z,-4.90
2022-11-20T06:32:47.173Z,-4.91
2022-11-20T06:35:16.530Z,-4.92
2022-11-20T06:37:44.470Z,-4.92
2022-11-20T06:40:13.404Z,-4.93
2022-11-20T06:42:41.216Z,-4.94
2022-11-20T06:45:10.580Z,-4.96
2022-11-20T06:47:38.321Z,-4.97
2022-11-20T06:50:06.931Z,-4.99
2022-11-20T06:52:40.783Z,-5.01
2022-11-20T06:55:11.256Z,-5.00
2022-11-20T06:57:39.043Z,-5.05
2022-11-20T07:00:07.993Z,-5.07
2022-11-20T07:02:35.717Z,-5.09
2022-11-20T07:05:03.566Z,-5.09
2022-11-20T07:07:31.558Z,-5.11
2022-11-20T07:10:00.747Z,-5.12
2022-11-20T07:12:28.514Z,-5.14
2022-11-20T07:14:56.389Z,-5.16
2022-11-20T07:17:24.421Z,-5.16
2022-11-20T07:19:52.219Z,-5.16
2022-11-20T07:22:22.570Z,-5.17
2022-11-20T07:24:50.377Z,-5.18
2022-11-20T07:27:19.414Z,-5.19
2022-11-20T07:29:47.155Z,-5.19
2022-11-20T07:32:14.847Z,-5.20
2022-11-20T07:34:42.597Z,-5.22
2022-11-20T07:37:10.693Z,-5.23
2022-11-20T07:39:38.628Z,-5.27
2022-11-20T07:42:06.443Z,-5.26
2022-11-20T07:44:35.612Z,-5.28
2022-11-20T07:47:03.788Z,-5.28
2022-11-20T07:49:31.553Z,-5.27
2022-11-20T07:52:03.262Z,-5.28
2022-11-20T07:54:32.654Z,-5.26
2022-11-20T07:57:00.458Z,-5.23
2022-11-20T07:59:28.263Z,-5.19
2022-11-20T08:01:57.434Z,-5.14
2022-11-20T08:04:25.397Z,-5.08
2022-11-20T08:06:54.214Z,-4.99
2022-11-20T08:09:22.177Z,-4.91
2022-11-20T08:12:07.844Z,-4.82
2022-11-20T08:14:35.586Z,-4.71
2022-11-20T08:17:04.713Z,-4.61
2022-11-20T08:19:32.578Z,-4.51
2022-11-20T08:22:00.369Z,-4.39
2022-11-20T08:24:28.111Z,-4.27
2022-11-20T08:26:55.883Z,-4.16
2022-11-20T08:29:24.103Z,-4.04
2022-11-20T08:31:52.018Z,-3.92
2022-11-20T08:34:21.249Z,-3.84
2022-11-20T08:36:49.059Z,-3.74
2022-11-20T08:39:16.850Z,-3.63
2022-11-20T08:41:44.592Z,-3.51
2022-11-20T08:44:12.358Z,-3.39
2022-11-20T08:46:41.986Z,-3.27
2022-11-20T08:49:12.033Z,-3.15
2022-11-20T08:51:42.257Z,-3.06
2022-11-20T08:54:10.407Z,-2.96
2022-11-20T08:56:38.215Z,-2.86
2022-11-20T08:59:43.307Z,-2.79
2022-11-20T09:01:54.024Z,-2.70
2022-11-20T09:04:21.819Z,-2.60
2022-11-20T09:06:51.994Z,-2.51
2022-11-20T09:09:20.385Z,-2.45
2022-11-20T09:11:48.553Z,-2.35
2022-11-20T09:14:16.324Z,-2.26
2022-11-20T09:16:44.047Z,-2.18
2022-11-20T09:22:01.030Z,-2.01
2022-11-20T09:24:29.224Z,-1.95
2022-11-20T09:26:56.924Z,-1.89
2022-11-20T09:29:24.642Z,-1.84
2022-11-20T09:31:52.418Z,-1.79
2022-11-20T09:34:20.155Z,-1.74
2022-11-20T09:36:47.880Z,-1.71
2022-11-20T09:39:16.973Z,-1.68
2022-11-20T09:42:02.095Z,-1.65
2022-11-20T09:44:42.988Z,-1.64
2022-11-20T09:47:16.955Z,-1.64
2022-11-20T09:50:00.436Z,-1.61
2022-11-20T09:52:41.515Z,-1.60
2022-11-20T09:55:14.022Z,-1.57
2022-11-20T09:57:46.829Z,-1.54
2022-11-20T10:00:16.793Z,-1.52
2022-11-20T10:02:49.414Z,-1.51
2022-11-20T10:05:20.994Z,-1.50
2022-11-20T10:07:56.188Z,-1.49
2022-11-20T10:10:42.579Z,-1.46
2022-11-20T10:13:22.863Z,-1.44
2022-11-20T10:16:02.062Z,-1.42
2022-11-20T10:18:45.857Z,-1.40
2022-11-20T10:21:26.828Z,-1.39
2022-11-20T10:24:11.299Z,-1.38
2022-11-20T10:26:50.262Z,-1.37
2022-11-20T10:29:21.062Z,-1.35
2022-11-20T10:31:53.237Z,-1.34
2022-11-20T10:34:25.396Z,-1.32
2022-11-20T10:36:57.803Z,-1.30
2022-11-20T10:39:34.434Z,-1.30
2022-11-20T10:42:03.596Z,-1.28
2022-11-20T10:44:53.716Z,-1.24
2022-11-20T10:47:24.425Z,-1.21
2022-11-20T10:49:55.909Z,-1.17
2022-11-20T10:52:31.728Z,-1.14
2022-11-20T10:55:09.213Z,-1.08
2022-11-20T10:57:53.944Z,-1.04
2022-11-20T11:00:21.756Z,-1.01
2022-11-20T11:02:51.109Z,-0.97
2022-11-20T11:05:31.840Z,-0.94
2022-11-20T11:08:00.929Z,-0.91
2022-11-20T11:10:40.214Z,-0.87
2022-11-20T11:13:20.877Z,-0.82
2022-11-20T11:15:48.845Z,-0.78
2022-11-20T11:18:26.522Z,-0.70
2022-11-20T11:20:55.581Z,-0.50
2022-11-20T11:23:33.856Z,-0.33
2022-11-20T11:26:03.293Z,-0.15
2022-11-20T11:28:32.839Z,0.02
2022-11-20T11:31:01.097Z,0.26
2022-11-20T11:33:30.589Z,0.40
2022-11-20T11:36:01.221Z,0.60
2022-11-20T11:38:32.514Z,0.81
2022-11-20T11:41:01.048Z,1.02
2022-11-20T11:43:53.228Z,1.24
2022-11-20T11:46:33.535Z,1.42
2022-11-20T11:49:03.250Z,1.56
2022-11-20T11:51:37.386Z,1.71
2022-11-20T11:54:12.609Z,1.82
2022-11-20T11:56:40.723Z,1.92
2022-11-20T11:59:16.757Z,2.03
2022-11-20T12:01:50.495Z,2.08
2022-11-20T12:04:30.654Z,2.07
2022-11-20T12:07:24.299Z,2.05
2022-11-20T12:09:56.643Z,2.23
2022-11-20T12:12:29.629Z,2.41
2022-11-20T12:15:00.757Z,2.64
2022-11-20T12:17:30.003Z,2.67
2022-11-20T12:19:59.872Z,2.58
2022-11-20T12:22:41.472Z,2.47
2022-11-20T12:25:17.659Z,2.36
2022-11-20T12:27:57.247Z,2.26
2022-11-20T12:30:27.072Z,2.19
2022-11-20T12:33:10.214Z,2.10
2022-11-20T12:35:50.693Z,2.04
2022-11-20T12:38:57.775Z,1.93
2022-11-20T12:41:59.123Z,1.92
2022-11-20T12:45:06.202Z,2.02
2022-11-20T12:48:07.433Z,2.31
2022-11-20T12:51:13.521Z,2.36
2022-11-20T12:53:45.732Z,2.35
2022-11-20T12:56:26.492Z,2.32
2022-11-20T12:59:07.845Z,2.33
2022-11-20T13:01:43.650Z,2.33
2022-11-20T13:04:28.155Z,2.31
2022-11-20T13:06:57.167Z,2.31
2022-11-20T13:09:26.398Z,2.30
2022-11-20T13:12:07.485Z,2.30
2022-11-20T13:14:39.579Z,2.30
2022-11-20T13:17:13.815Z,2.36
2022-11-20T13:19:43.642Z,2.50
2022-11-20T13:22:11.786Z,2.60
2022-11-20T13:24:39.602Z,2.60
2022-11-20T13:27:21.415Z,2.64
2022-11-20T13:30:02.449Z,2.58
2022-11-20T13:32:33.259Z,2.59
2022-11-20T13:35:05.314Z,2.65
2022-11-20T13:37:35.119Z,2.69
2022-11-20T13:40:23.262Z,2.66
2022-11-20T13:43:02.897Z,2.69
2022-11-20T13:45:32.630Z,2.73
2022-11-20T13:48:04.592Z,2.70
2022-11-20T13:50:53.024Z,2.60
2022-11-20T13:53:35.312Z,2.56
2022-11-20T13:56:11.516Z,2.53
2022-11-20T13:58:53.198Z,2.50
2022-11-20T14:01:23.848Z,2.43
2022-11-20T14:04:08.595Z,2.29
2022-11-20T14:06:43.541Z,2.21
2022-11-20T14:09:13.870Z,2.11
2022-11-20T14:11:48.946Z,2.02
2022-11-20T14:14:20.097Z,1.94
2022-11-20T14:16:48.824Z,1.85
2022-11-20T14:19:28.370Z,1.78
2022-11-20T14:22:11.197Z,1.71
2022-11-20T14:24:39.341Z,1.66
2022-11-20T14:27:12.877Z,1.59
2022-11-20T14:29:41.642Z,1.53
2022-11-20T14:32:11.817Z,1.50
2022-11-20T14:34:42.492Z,1.49
2022-11-20T14:37:17.249Z,1.51
2022-11-20T14:39:51.770Z,1.48
2022-11-20T14:42:21.273Z,1.44
2022-11-20T14:44:50.449Z,1.39
2022-11-20T14:47:21.564Z,1.33
2022-11-20T14:49:50.780Z,1.26
2022-11-20T14:52:22.246Z,1.20
2022-11-20T14:54:51.762Z,1.11
2022-11-20T14:57:28.727Z,1.02
2022-11-20T15:00:22.578Z,0.96
2022-11-20T15:02:52.193Z,0.90
2022-11-20T15:05:21.926Z,0.85
2022-11-20T15:07:53.238Z,0.81
2022-11-20T15:10:26.037Z,0.74
2022-11-20T15:12:56.653Z,0.70
2022-11-20T15:15:31.282Z,0.64
2022-11-20T15:17:59.483Z,0.59
2022-11-20T15:20:30.600Z,0.54
2022-11-20T15:22:59.842Z,0.48
2022-11-20T15:25:27.968Z,0.40
2022-11-20T15:27:58.315Z,0.34
2022-11-20T15:30:26.521Z,0.26
2022-11-20T15:32:54.565Z,0.20
2022-11-20T15:35:22.456Z,0.14
2022-11-20T15:37:50.309Z,0.08
2022-11-20T15:40:19.814Z,0.01
2022-11-20T15:43:01.562Z,-0.06
2022-11-20T15:45:31.756Z,-0.14
2022-11-20T15:47:59.692Z,-0.22
2022-11-20T15:50:32.948Z,-0.28
2022-11-20T15:53:01.246Z,-0.38
2022-11-20T15:55:30.448Z,-0.43
2022-11-20T15:57:58.328Z,-0.50
2022-11-20T16:00:26.390Z,-0.56
2022-11-20T16:02:54.314Z,-0.64
2022-11-20T16:05:24.100Z,-0.70
2022-11-20T16:07:52.747Z,-0.77
2022-11-20T16:10:20.867Z,-0.83
2022-11-20T16:13:07.591Z,-0.89
2022-11-20T16:15:47.988Z,-0.97
2022-11-20T16:18:18.495Z,-1.05
2022-11-20T16:20:47.378Z,-1.11
2022-11-20T16:23:16.458Z,-1.17
2022-11-20T16:25:44.933Z,-1.23
2022-11-20T16:28:18.934Z,-1.28
2022-11-20T16:30:47.897Z,-1.34
2022-11-20T16:33:18.012Z,-1.40
2022-11-20T16:35:46.006Z,-1.45
2022-11-20T16:38:14.123Z,-1.53
2022-11-20T16:40:41.957Z,-1.57
2022-11-20T16:43:11.766Z,-1.64
2022-11-20T16:45:45.956Z,-1.70
2022-11-20T16:48:15.939Z,-1.76
2022-11-20T16:50:49.135Z,-1.81
2022-11-20T16:53:18.459Z,-1.87
2022-11-20T16:55:46.458Z,-1.93
2022-11-20T16:58:14.979Z,-1.98
2022-11-20T17:00:51.195Z,-2.02
2022-11-20T17:03:21.076Z,-2.11
2022-11-20T17:05:49.153Z,-2.15
2022-11-20T17:08:16.973Z,-2.20
2022-11-20T17:10:44.847Z,-2.23
2022-11-20T17:13:12.793Z,-2.28
2022-11-20T17:15:40.751Z,-2.31
2022-11-20T17:18:10.091Z,-2.33
2022-11-20T17:20:38.012Z,-2.35
2022-11-20T17:23:05.861Z,-2.37
2022-11-20T17:25:34.602Z,-2.39
2022-11-20T17:28:02.465Z,-2.39
2022-11-20T17:30:30.635Z,-2.40
2022-11-20T17:32:58.495Z,-2.40
2022-11-20T17:35:27.852Z,-2.39
2022-11-20T17:37:55.682Z,-2.39
2022-11-20T17:40:27.384Z,-2.40
2022-11-20T17:42:56.179Z,-2.41
2022-11-20T17:45:24.041Z,-2.38
2022-11-20T17:47:52.143Z,-2.37
2022-11-20T17:50:20.065Z,-2.35
2022-11-20T17:52:49.272Z,-2.36
2022-11-20T17:55:17.171Z,-2.36
2022-11-20T17:57:52.992Z,-2.39
2022-11-20T18:00:22.257Z,-2.39
2022-11-20T18:02:50.466Z,-2.40
2022-11-20T18:05:18.475Z,-2.42
2022-11-20T18:07:46.504Z,-2.45
2022-11-20T18:10:15.829Z,-2.46
2022-11-20T18:12:43.961Z,-2.49
2022-11-20T18:15:12.113Z,-2.51
2022-11-20T18:17:40.296Z,-2.54
2022-11-20T18:22:57.326Z,-2.58
2022-11-20T18:25:26.625Z,-2.60
2022-11-20T18:27:54.469Z,-2.63
2022-11-20T18:30:22.867Z,-2.66
2022-11-20T18:32:50.987Z,-2.66
2022-11-20T18:35:18.966Z,-2.68
2022-11-20T18:37:47.171Z,-2.72
2022-11-20T18:40:15.276Z,-2.72
2022-11-20T18:43:04.430Z,-2.74
2022-11-20T18:45:32.477Z,-2.78
2022-11-20T18:48:00.366Z,-2.79
2022-11-20T18:50:28.278Z,-2.82
2022-11-20T18:52:56.001Z,-2.84
2022-11-20T18:55:25.887Z,-2.86
2022-11-20T18:57:55.133Z,-2.89
2022-11-20T19:00:23.038Z,-2.91
2022-11-20T19:02:54.484Z,-2.95
2022-11-20T19:05:22.847Z,-2.98
2022-11-20T19:07:50.565Z,-2.99
2022-11-20T19:10:20.232Z,-3.02
2022-11-20T19:12:48.129Z,-3.05
2022-11-20T19:15:17.573Z,-3.07
2022-11-20T19:17:45.289Z,-3.07
2022-11-20T19:20:13.473Z,-3.10
2022-11-20T19:22:41.235Z,-3.13
2022-11-20T19:25:09.694Z,-3.15
2022-11-20T19:27:37.444Z,-3.18
2022-11-20T19:30:06.069Z,-3.19
2022-11-20T19:32:35.464Z,-3.22
2022-11-20T19:35:03.620Z,-3.25
2022-11-20T19:37:34.053Z,-3.26
2022-11-20T19:40:04.310Z,-3.30
2022-11-20T19:42:32.587Z,-3.34
2022-11-20T19:45:00.337Z,-3.35
2022-11-20T19:47:52.783Z,-3.39
2022-11-20T19:50:17.510Z,-3.41
2022-11-20T19:52:45.231Z,-3.43
2022-11-20T19:55:13.033Z,-3.45
2022-11-20T19:57:40.808Z,-3.47
2022-11-20T20:00:10.023Z,-3.47
2022-11-20T20:02:38.228Z,-3.49
2022-11-20T20:05:07.062Z,-3.49
2022-11-20T20:07:36.192Z,-3.50
2022-11-20T20:10:04.020Z,-3.52
2022-11-20T20:12:31.788Z,-3.51
2022-11-20T20:14:59.578Z,-3.51
2022-11-20T20:17:27.316Z,-3.49
2022-11-20T20:19:55.162Z,-3.48
2022-11-20T20:22:22.939Z,-3.48
2022-11-20T20:24:52.128Z,-3.45
2022-11-20T20:27:20.014Z,-3.46
2022-11-20T20:29:47.848Z,-3.44
2022-11-20T20:32:15.631Z,-3.43
2022-11-20T20:34:43.338Z,-3.43
2022-11-20T20:37:11.103Z,-3.40
2022-11-20T20:39:38.842Z,-3.40
2022-11-20T20:42:08.039Z,-3.36
2022-11-20T20:44:53.546Z,-3.34
2022-11-20T20:47:21.290Z,-3.31
2022-11-20T20:49:49.013Z,-3.30
2022-11-20T20:52:16.787Z,-3.27
2022-11-20T20:54:44.530Z,-3.26
2022-11-20T20:57:13.859Z,-3.23
2022-11-20T20:59:41.587Z,-3.21
2022-11-20T21:02:11.207Z,-3.18
2022-11-20T21:04:39.105Z,-3.17
2022-11-20T21:07:07.045Z,-3.14
2022-11-20T21:09:34.864Z,-3.13
2022-11-20T21:12:02.659Z,-3.11
2022-11-20T21:14:31.992Z,-3.11
2022-11-20T21:16:59.781Z,-3.08
2022-11-20T21:19:27.695Z,-3.06
2022-11-20T21:22:00.387Z,-3.05
2022-11-20T21:24:28.925Z,-3.04
2022-11-20T21:26:57.795Z,-3.02
2022-11-20T21:29:27.534Z,-3.01
2022-11-20T21:31:57.655Z,-2.99
2022-11-20T21:34:26.511Z,-2.97
2022-11-20T21:36:54.394Z,-2.95
2022-11-20T21:39:22.911Z,-2.93
2022-11-20T21:41:50.793Z,-2.92
2022-11-20T21:44:33.838Z,-2.91
2022-11-20T21:47:02.960Z,-2.89
2022-11-20T21:49:30.728Z,-2.87
2022-11-20T21:51:58.493Z,-2.85
2022-11-20T21:54:26.683Z,-2.84
2022-11-20T21:56:54.860Z,-2.83
2022-11-20T21:59:23.207Z,-2.82
2022-11-20T22:01:51.027Z,-2.79
2022-11-20T22:04:21.374Z,-2.75
2022-11-20T22:06:49.536Z,-2.73
2022-11-20T22:09:17.276Z,-2.70
2022-11-20T22:11:45.240Z,-2.69
2022-11-20T22:14:21.052Z,-2.65
2022-11-20T22:16:49.265Z,-2.63
2022-11-20T22:19:18.951Z,-2.61
2022-11-20T22:21:48.414Z,-2.59
2022-11-20T22:24:18.086Z,-2.57
2022-11-20T22:26:46.197Z,-2.56
2022-11-20T22:29:16.264Z,-2.53
2022-11-20T22:31:44.160Z,-2.52
2022-11-20T22:34:13.370Z,-2.52
2022-11-20T22:36:41.847Z,-2.51
2022-11-20T22:39:11.193Z,-2.52
2022-11-20T22:41:38.989Z,-2.51
2022-11-20T22:44:08.783Z,-2.50
2022-11-20T22:46:38.183Z,-2.51
2022-11-20T22:49:08.428Z,-2.50
2022-11-20T22:51:38.099Z,-2.50
2022-11-20T22:54:06.066Z,-2.51
2022-11-20T22:56:35.318Z,-2.52
2022-11-20T22:59:03.107Z,-2.50
2022-11-20T23:01:32.483Z,-2.51
2022-11-20T23:04:02.309Z,-2.51
2022-11-20T23:06:30.841Z,-2.51
2022-11-20T23:08:58.563Z,-2.50
2022-11-20T23:11:28.731Z,-2.51
2022-11-20T23:14:01.106Z,-2.49
2022-11-20T23:16:31.207Z,-2.50
2022-11-20T23:19:00.596Z,-2.49
2022-11-20T23:21:28.516Z,-2.49
2022-11-20T23:23:57.797Z,-2.49
2022-11-20T23:26:29.332Z,-2.50
2022-11-20T23:28:59.994Z,-2.50
2022-11-20T23:31:29.893Z,-2.49
2022-11-20T23:33:58.132Z,-2.48
2022-11-20T23:36:25.893Z,-2.50
2022-11-20T23:38:54.006Z,-2.49
2022-11-20T23:41:21.760Z,-2.49
2022-11-20T23:43:49.550Z,-2.48
2022-11-20T23:46:18.686Z,-2.46
2022-11-20T23:48:46.430Z,-2.47
2022-11-20T23:51:15.080Z,-2.48
2022-11-20T23:53:42.799Z,-2.47
2022-11-20T23:56:11.800Z,-2.47
2022-11-20T23:58:39.920Z,-2.46
